createdAt,value
2018-10-03T00:02:13.165Z,100.00
2018-10-03T00:03:39.804Z,100.00
2018-10-03T00:05:06.714Z,100.00
2018-10-03T00:06:30.063Z,100.00
2018-10-03T00:07:57.400Z,100.00
2018-10-03T00:09:24.687Z,100.00
2018-10-03T00:10:56.049Z,100.00
2018-10-03T00:12:22.918Z,100.00
2018-10-03T00:13:50.338Z,100.00
2018-10-03T00:15:17.320Z,100.00
2018-10-03T00:16:40.537Z,100.00
2018-10-03T00:18:07.575Z,100.00
2018-10-03T00:19:38.366Z,100.00
2018-10-03T00:21:05.569Z,100.00
2018-10-03T00:22:28.792Z,100.00
2018-10-03T00:24:00.127Z,100.00
2018-10-03T00:25:27.453Z,100.00
2018-10-03T00:26:54.657Z,100.00
2018-10-03T00:39:55.884Z,100.00
2018-10-03T00:41:26.532Z,100.00
2018-10-03T00:42:49.790Z,100.00
2018-10-03T00:44:17.113Z,100.00
2018-10-03T00:45:44.410Z,100.00
2018-10-03T00:47:15.576Z,100.00
2018-10-03T00:48:38.804Z,100.00
2018-10-03T00:50:10.135Z,100.00
2018-10-03T00:51:33.429Z,100.00
2018-10-03T00:53:00.790Z,100.00
2018-10-03T00:54:28.001Z,100.00
2018-10-03T00:55:58.933Z,100.00
2018-10-03T00:57:26.252Z,100.00
2018-10-03T00:58:53.604Z,100.00
2018-10-03T01:06:19.222Z,100.00
2018-10-03T01:07:45.447Z,100.00
2018-10-03T01:09:12.483Z,100.00
2018-10-03T01:10:39.746Z,100.00
2018-10-03T01:12:07.074Z,100.00
2018-10-03T01:13:30.215Z,100.00
2018-10-03T01:14:57.382Z,100.00
2018-10-03T01:16:28.825Z,100.00
2018-10-03T01:17:55.913Z,100.00
2018-10-03T01:19:19.144Z,100.00
2018-10-03T01:20:50.493Z,100.00
2018-10-03T01:22:17.699Z,100.00
2018-10-03T01:23:45.024Z,100.00
2018-10-03T01:25:08.401Z,100.00
2018-10-03T01:26:35.835Z,100.00
2018-10-03T01:28:08.101Z,100.00
2018-10-03T01:29:30.432Z,100.00
2018-10-03T01:30:57.787Z,100.00
2018-10-03T01:32:24.810Z,100.00
2018-10-03T01:33:52.096Z,100.00
2018-10-03T07:57:12.424Z,100.00
2018-10-03T07:58:39.899Z,100.00
2018-10-03T08:00:06.222Z,100.00
2018-10-03T08:01:29.562Z,100.00
2018-10-03T08:03:00.737Z,100.00
2018-10-03T08:04:23.935Z,100.00
2018-10-03T08:05:51.369Z,100.00
2018-10-03T08:07:18.940Z,100.00
2018-10-03T08:08:50.075Z,100.00
2018-10-03T08:10:13.474Z,100.00
2018-10-03T08:11:40.742Z,100.00
2018-10-03T08:13:11.534Z,100.00
2018-10-03T08:14:38.754Z,100.00
2018-10-03T08:16:01.648Z,100.00
2018-10-03T08:17:28.950Z,100.00
2018-10-03T08:18:56.187Z,100.00
2018-10-03T08:20:23.454Z,100.00
2018-10-03T08:21:50.620Z,100.00
2018-10-03T08:23:22.104Z,100.00
2018-10-03T08:24:49.212Z,100.00
2018-10-03T08:26:12.544Z,100.00
2018-10-03T08:27:39.773Z,100.00
2018-10-03T08:29:10.766Z,100.00
2018-10-03T08:30:34.209Z,100.00
2018-10-03T08:32:05.517Z,100.00
2018-10-03T08:33:28.904Z,100.00
2018-10-03T08:35:00.365Z,100.00
2018-10-03T08:36:27.821Z,100.00
2018-10-03T08:37:51.279Z,100.00
2018-10-03T08:39:22.712Z,100.00
2018-10-03T08:40:50.050Z,100.00
2018-10-03T08:42:13.230Z,100.00
2018-10-03T08:43:44.484Z,100.00
2018-10-03T08:45:07.649Z,100.00
2018-10-03T08:46:34.988Z,100.00
2018-10-03T08:48:06.065Z,100.00
2018-10-03T08:49:29.507Z,100.00
2018-10-03T08:51:00.911Z,100.00
2018-10-03T08:52:24.353Z,100.00
2018-10-03T08:53:55.730Z,100.00
2018-10-03T08:55:23.187Z,100.00
2018-10-03T08:56:50.117Z,100.00
2018-10-03T08:58:13.361Z,100.00
2018-10-03T08:59:40.632Z,100.00
2018-10-03T09:01:11.658Z,100.00
2018-10-03T09:02:38.845Z,100.00
2018-10-03T09:04:01.936Z,100.00
2018-10-03T09:05:28.996Z,100.00
2018-10-03T09:06:56.189Z,100.00
2018-10-03T09:08:27.354Z,100.00
2018-10-03T09:09:50.808Z,100.00
2018-10-03T09:11:22.102Z,100.00
2018-10-03T09:12:49.485Z,100.00
2018-10-03T09:14:12.804Z,100.00
2018-10-03T09:15:40.054Z,100.00
2018-10-03T09:17:11.283Z,100.00
2018-10-03T09:18:38.887Z,100.00
2018-10-03T09:20:01.878Z,100.00
2018-10-03T09:21:33.380Z,100.00
2018-10-03T09:23:00.530Z,100.00
2018-10-03T09:24:28.097Z,100.00
2018-10-03T09:25:55.147Z,100.00
2018-10-03T09:27:18.384Z,100.00
2018-10-03T09:28:49.633Z,100.00
2018-10-03T09:30:13.128Z,100.00
2018-10-03T09:31:44.262Z,100.00
2018-10-03T09:33:07.324Z,100.00
2018-10-03T09:34:34.800Z,100.00
2018-10-03T09:36:06.204Z,100.00
2018-10-03T09:37:29.431Z,100.00
2018-10-03T09:39:00.875Z,100.00
2018-10-03T09:40:27.999Z,100.00
2018-10-03T09:41:51.518Z,100.00
2018-10-03T09:43:22.836Z,100.00
2018-10-03T09:44:50.325Z,100.00
2018-10-03T09:46:13.569Z,100.00
2018-10-03T09:47:41.091Z,100.00
2018-10-03T09:49:12.154Z,100.00
2018-10-03T09:50:39.475Z,100.00
2018-10-03T09:52:02.977Z,100.00
2018-10-03T09:53:30.296Z,100.00
2018-10-03T09:55:01.740Z,100.00
2018-10-03T09:56:25.143Z,100.00
2018-10-03T09:57:56.362Z,100.00
2018-10-03T09:59:23.748Z,100.00
2018-10-03T10:00:47.221Z,100.00
2018-10-03T10:02:14.360Z,100.00
2018-10-03T10:03:45.521Z,100.00
2018-10-03T10:05:08.780Z,100.00
2018-10-03T10:06:40.230Z,100.00
2018-10-03T10:08:07.157Z,100.00
2018-10-03T10:09:34.558Z,100.00
2018-10-03T10:11:02.047Z,100.00
2018-10-03T10:12:29.126Z,100.00
2018-10-03T10:13:52.535Z,100.00
2018-10-03T10:15:20.044Z,100.00
2018-10-03T10:16:51.350Z,100.00
2018-10-03T10:18:18.625Z,100.00
2018-10-03T10:19:41.832Z,100.00
2018-10-03T10:21:09.093Z,100.00
2018-10-03T10:22:36.449Z,100.00
2018-10-03T10:24:07.965Z,100.00
2018-10-03T10:25:35.155Z,100.00
2018-10-03T10:27:02.650Z,100.00
2018-10-03T10:28:25.827Z,100.00
2018-10-03T10:29:53.142Z,100.00
2018-10-03T10:31:24.504Z,100.00
2018-10-03T10:32:51.815Z,100.00
2018-10-03T10:34:15.212Z,100.00
2018-10-03T10:35:42.076Z,100.00
2018-10-03T10:37:13.203Z,100.00
2018-10-03T10:38:40.826Z,100.00
2018-10-03T10:40:09.406Z,100.00
2018-10-03T10:41:35.995Z,100.00
2018-10-03T10:43:03.198Z,100.00
2018-10-03T10:44:30.741Z,100.00
2018-10-03T10:45:53.863Z,100.00
2018-10-03T10:47:21.086Z,100.00
2018-10-03T10:48:48.153Z,100.00
2018-10-03T10:50:19.585Z,100.00
2018-10-03T10:51:42.779Z,100.00
2018-10-03T10:53:10.139Z,100.00
2018-10-03T10:54:41.346Z,100.00
2018-10-03T10:56:08.717Z,100.00
2018-10-03T10:57:36.091Z,100.00
2018-10-03T10:58:59.509Z,100.00
2018-10-03T11:00:31.011Z,100.00
2018-10-03T11:01:54.389Z,100.00
2018-10-03T11:03:25.716Z,100.00
2018-10-03T11:04:49.132Z,100.00
2018-10-03T11:06:16.672Z,100.00
2018-10-03T11:07:43.875Z,100.00
2018-10-03T11:09:15.084Z,100.00
2018-10-03T11:10:38.584Z,100.00
2018-10-03T11:12:06.074Z,100.00
2018-10-03T11:13:37.344Z,100.00
2018-10-03T11:15:05.001Z,100.00
2018-10-03T11:16:32.060Z,100.00
2018-10-03T11:17:59.557Z,100.00
2018-10-03T11:19:23.117Z,100.00
2018-10-03T11:20:54.426Z,100.00
2018-10-03T11:22:17.844Z,100.00
2018-10-03T11:23:49.474Z,100.00
2018-10-03T11:25:16.772Z,100.00
2018-10-03T11:26:39.945Z,100.00
2018-10-03T11:28:11.156Z,100.00
2018-10-03T11:29:34.566Z,100.00
2018-10-03T11:31:06.115Z,100.00
2018-10-03T11:32:29.666Z,95.42
2018-10-03T11:33:56.891Z,97.59
2018-10-03T11:35:28.262Z,98.45
2018-10-03T11:36:51.533Z,96.14
2018-10-03T11:38:19.013Z,96.63
2018-10-03T11:39:46.246Z,96.78
2018-10-03T11:41:17.683Z,93.75
2018-10-03T11:42:45.287Z,95.92
2018-10-03T11:44:08.655Z,93.19
2018-10-03T11:45:39.944Z,95.25
2018-10-03T11:47:07.488Z,96.14
2018-10-03T11:48:30.917Z,94.41
2018-10-03T11:50:02.514Z,95.27
2018-10-03T11:51:29.957Z,94.97
2018-10-03T11:52:53.434Z,92.66
2018-10-03T11:54:20.819Z,93.33
2018-10-03T11:55:48.310Z,95.25
2018-10-03T11:57:19.560Z,92.24
2018-10-03T11:58:42.860Z,92.42
2018-10-03T12:00:14.157Z,93.52
2018-10-03T12:01:37.555Z,92.79
2018-10-03T12:03:09.084Z,91.62
2018-10-03T12:04:32.275Z,93.64
2018-10-03T12:05:59.656Z,93.30
2018-10-03T12:07:26.968Z,94.71
2018-10-03T12:08:58.393Z,96.58
2018-10-03T12:10:21.621Z,94.88
2018-10-03T12:11:48.977Z,92.26
2018-10-03T12:13:20.478Z,93.32
2018-10-03T12:14:47.932Z,95.01
2018-10-03T12:16:11.511Z,93.33
2018-10-03T12:17:42.664Z,91.99
2018-10-03T12:19:06.038Z,91.29
2018-10-03T12:20:33.517Z,92.79
2018-10-03T12:22:04.855Z,95.52
2018-10-03T12:23:28.273Z,98.49
2018-10-03T12:24:59.699Z,100.00
2018-10-03T12:26:23.050Z,100.00
2018-10-03T12:27:54.624Z,100.00
2018-10-03T12:29:22.132Z,100.00
2018-10-03T12:30:49.504Z,100.00
2018-10-03T12:32:12.645Z,100.00
2018-10-03T12:33:40.103Z,100.00
2018-10-03T12:35:07.322Z,100.00
2018-10-03T12:36:34.780Z,100.00
2018-10-03T12:38:06.125Z,100.00
2018-10-03T12:39:33.762Z,100.00
2018-10-03T12:41:00.883Z,100.00
2018-10-03T12:42:24.265Z,100.00
2018-10-03T12:43:55.636Z,100.00
2018-10-03T12:45:23.045Z,100.00
2018-10-03T12:46:50.472Z,100.00
2018-10-03T12:48:18.010Z,100.00
2018-10-03T12:49:45.148Z,100.00
2018-10-03T12:51:12.489Z,100.00
2018-10-03T12:52:39.693Z,100.00
2018-10-03T12:54:03.004Z,100.00
2018-10-03T12:55:30.366Z,100.00
2018-10-03T12:56:57.816Z,100.00
2018-10-03T12:58:25.385Z,100.00
2018-10-03T12:59:56.699Z,98.60
2018-10-03T13:01:24.315Z,94.87
2018-10-03T13:02:47.691Z,96.66
2018-10-03T13:04:14.921Z,98.65
2018-10-03T13:05:42.453Z,98.03
2018-10-03T13:07:09.779Z,99.09
2018-10-03T13:08:37.041Z,100.00
2018-10-03T13:10:08.409Z,100.00
2018-10-03T13:11:35.786Z,100.00
2018-10-03T13:13:03.008Z,100.00
2018-10-03T13:14:30.623Z,100.00
2018-10-03T13:15:57.923Z,100.00
2018-10-03T13:17:21.176Z,100.00
2018-10-03T13:18:52.524Z,100.00
2018-10-03T13:20:20.808Z,100.00
2018-10-03T13:21:47.447Z,100.00
2018-10-03T13:23:10.600Z,100.00
2018-10-03T13:24:41.849Z,100.00
2018-10-03T13:26:09.267Z,100.00
2018-10-03T13:27:36.926Z,100.00
2018-10-03T13:29:04.220Z,100.00
2018-10-03T13:30:27.637Z,100.00
2018-10-03T13:31:55.124Z,100.00
2018-10-03T13:33:26.536Z,100.00
2018-10-03T13:34:53.880Z,100.00
2018-10-03T13:36:21.320Z,100.00
2018-10-03T13:37:48.779Z,100.00
2018-10-03T13:39:12.198Z,100.00
2018-10-03T13:40:39.616Z,100.00
2018-10-03T13:42:10.643Z,100.00
2018-10-03T13:43:34.145Z,100.00
2018-10-03T13:45:01.210Z,100.00
2018-10-03T13:46:32.677Z,100.00
2018-10-03T13:47:56.152Z,100.00
2018-10-03T13:49:27.600Z,100.00
2018-10-03T13:50:55.126Z,100.00
2018-10-03T13:52:18.438Z,100.00
2018-10-03T13:53:49.793Z,100.00
2018-10-03T13:55:17.495Z,100.00
2018-10-03T13:56:40.842Z,100.00
2018-10-03T13:58:11.936Z,100.00
2018-10-03T13:59:35.462Z,100.00
2018-10-03T14:01:06.743Z,100.00
2018-10-03T14:02:33.968Z,100.00
2018-10-03T14:04:01.558Z,100.00
2018-10-03T14:05:24.932Z,100.00
2018-10-03T14:06:56.397Z,100.00
2018-10-03T14:08:19.589Z,100.00
2018-10-03T14:09:46.912Z,100.00
2018-10-03T14:11:18.190Z,100.00
2018-10-03T14:12:45.595Z,100.00
2018-10-03T14:14:12.936Z,100.00
2018-10-03T14:15:40.334Z,100.00
2018-10-03T14:17:03.884Z,100.00
2018-10-03T14:18:35.084Z,100.00
2018-10-03T14:20:02.309Z,100.00
2018-10-03T14:21:29.732Z,100.00
2018-10-03T14:22:53.311Z,100.00
2018-10-03T14:24:24.662Z,100.00
2018-10-03T14:25:48.043Z,100.00
2018-10-03T14:27:15.227Z,100.00
2018-10-03T14:28:42.539Z,100.00
2018-10-03T14:30:13.956Z,100.00
2018-10-03T14:31:37.427Z,100.00
2018-10-03T14:33:04.869Z,100.00
2018-10-03T14:34:32.322Z,100.00
2018-10-03T14:35:59.499Z,100.00
2018-10-03T14:37:26.848Z,100.00
2018-10-03T14:38:58.122Z,100.00
2018-10-03T14:40:21.434Z,100.00
2018-10-03T14:41:48.922Z,100.00
2018-10-03T14:43:16.252Z,100.00
2018-10-03T14:44:47.647Z,100.00
2018-10-03T14:46:15.051Z,100.00
2018-10-03T14:47:42.314Z,100.00
2018-10-03T14:49:09.744Z,100.00
2018-10-03T14:50:33.009Z,100.00
2018-10-03T14:52:00.450Z,100.00
2018-10-03T14:53:31.795Z,100.00
2018-10-03T14:54:55.215Z,100.00
2018-10-03T14:56:26.309Z,100.00
2018-10-03T14:57:53.772Z,100.00
2018-10-03T14:59:20.867Z,100.00
2018-10-03T15:00:47.767Z,100.00
2018-10-03T15:02:15.238Z,100.00
2018-10-03T15:03:38.503Z,100.00
2018-10-03T15:05:05.997Z,100.00
2018-10-03T15:06:33.355Z,100.00
2018-10-03T15:08:00.848Z,100.00
2018-10-03T15:09:31.820Z,100.00
2018-10-03T15:10:59.145Z,100.00
2018-10-03T15:12:22.557Z,100.00
2018-10-03T15:13:50.028Z,100.00
2018-10-03T15:15:21.357Z,100.00
2018-10-03T15:16:48.654Z,100.00
2018-10-03T15:18:12.138Z,100.00
2018-10-03T15:19:39.630Z,100.00
2018-10-03T15:21:06.841Z,100.00
2018-10-03T15:22:34.146Z,100.00
2018-10-03T15:24:05.533Z,100.00
2018-10-03T15:25:33.048Z,100.00
2018-10-03T15:26:56.002Z,100.00
2018-10-03T15:28:23.317Z,100.00
2018-10-03T15:29:55.012Z,100.00
2018-10-03T15:31:18.203Z,100.00
2018-10-03T15:32:49.589Z,100.00
2018-10-03T15:34:13.069Z,100.00
2018-10-03T15:35:40.371Z,100.00
2018-10-03T15:37:07.577Z,100.00
2018-10-03T15:38:35.006Z,100.00
2018-10-03T15:40:02.514Z,100.00
2018-10-03T15:41:33.915Z,100.00
2018-10-03T15:42:56.934Z,100.00
2018-10-03T15:44:28.300Z,100.00
2018-10-03T15:45:55.455Z,100.00
2018-10-03T15:47:22.936Z,100.00
2018-10-03T15:48:50.514Z,100.00
2018-10-03T15:50:13.839Z,100.00
2018-10-03T15:51:45.314Z,100.00
2018-10-03T15:53:12.576Z,100.00
2018-10-03T15:54:39.940Z,100.00
2018-10-03T15:56:07.243Z,100.00
2018-10-03T15:57:30.682Z,100.00
2018-10-03T15:58:57.957Z,100.00
2018-10-03T16:00:33.205Z,100.00
2018-10-03T16:01:52.229Z,100.00
2018-10-03T16:03:23.565Z,100.00
2018-10-03T16:04:50.644Z,100.00
2018-10-03T16:06:13.675Z,100.00
2018-10-03T16:07:45.007Z,100.00
2018-10-03T16:09:08.306Z,100.00
2018-10-03T16:10:39.518Z,100.00
2018-10-03T16:12:06.827Z,100.00
2018-10-03T16:13:34.104Z,100.00
2018-10-03T16:15:01.292Z,100.00
2018-10-03T16:16:28.642Z,100.00
2018-10-03T16:17:52.077Z,100.00
2018-10-03T16:19:19.132Z,100.00
2018-10-03T16:20:50.420Z,100.00
2018-10-03T16:22:17.818Z,100.00
2018-10-03T16:23:41.275Z,100.00
2018-10-03T16:25:08.274Z,100.00
2018-10-03T16:26:39.627Z,100.00
2018-10-03T16:28:03.225Z,100.00
2018-10-03T16:29:30.431Z,100.00
2018-10-03T16:30:57.864Z,100.00
2018-10-03T16:32:29.389Z,100.00
2018-10-03T16:33:56.876Z,100.00
2018-10-03T16:35:19.709Z,100.00
2018-10-03T16:36:46.792Z,100.00
2018-10-03T16:38:14.105Z,100.00
2018-10-03T16:39:45.365Z,100.00
2018-10-03T16:41:12.871Z,100.00
2018-10-03T16:42:36.354Z,100.00
2018-10-03T16:44:03.219Z,100.00
2018-10-03T16:45:34.195Z,100.00
2018-10-03T16:47:01.633Z,100.00
2018-10-03T16:48:24.982Z,100.00
2018-10-03T16:49:52.299Z,100.00
2018-10-03T16:51:23.304Z,100.00
2018-10-03T16:52:50.458Z,100.00
2018-10-03T16:54:13.836Z,100.00
2018-10-03T16:55:41.016Z,100.00
2018-10-03T16:57:08.204Z,100.00
2018-10-03T16:58:39.512Z,100.00
2018-10-03T17:00:02.901Z,100.00
2018-10-03T17:01:34.288Z,100.00
2018-10-03T17:03:01.351Z,100.00
2018-10-03T17:04:28.700Z,100.00
2018-10-03T17:05:56.003Z,100.00
2018-10-03T17:07:19.250Z,100.00
2018-10-03T17:08:46.558Z,100.00
2018-10-03T17:10:17.656Z,100.00
2018-10-03T17:11:40.902Z,100.00
2018-10-03T17:13:12.274Z,100.00
2018-10-03T17:14:39.672Z,100.00
2018-10-03T17:16:06.837Z,100.00
2018-10-03T17:17:29.876Z,100.00
2018-10-03T17:19:01.200Z,100.00
2018-10-03T17:20:24.235Z,100.00
2018-10-03T17:21:55.247Z,100.00
2018-10-03T17:23:22.545Z,100.00
2018-10-03T17:24:45.659Z,100.00
2018-10-03T17:26:12.925Z,100.00
2018-10-03T17:27:40.371Z,100.00
2018-10-03T17:29:11.437Z,100.00
2018-10-03T17:30:38.364Z,100.00
2018-10-03T17:32:01.675Z,100.00
2018-10-03T17:33:33.055Z,100.00
2018-10-03T17:34:56.310Z,100.00
2018-10-03T17:36:27.676Z,100.00
2018-10-03T17:37:50.979Z,100.00
2018-10-03T17:39:22.432Z,100.00
2018-10-03T17:40:45.675Z,100.00
2018-10-03T17:42:12.928Z,100.00
2018-10-03T17:43:44.235Z,100.00
2018-10-03T17:45:07.649Z,100.00
2018-10-03T17:46:38.671Z,100.00
2018-10-03T17:48:01.853Z,100.00
2018-10-03T17:49:29.139Z,100.00
2018-10-03T17:50:56.563Z,100.00
2018-10-03T17:52:27.826Z,100.00
2018-10-03T17:53:51.212Z,100.00
2018-10-03T17:55:22.595Z,100.00
2018-10-03T17:56:46.082Z,100.00
2018-10-03T17:58:17.470Z,100.00
2018-10-03T17:59:44.729Z,100.00
2018-10-03T18:01:11.953Z,100.00
2018-10-03T18:02:39.225Z,100.00
2018-10-03T18:04:02.392Z,100.00
2018-10-03T18:05:33.861Z,100.00
2018-10-03T18:07:01.135Z,100.00
2018-10-03T18:08:28.445Z,100.00
2018-10-03T18:09:51.802Z,100.00
2018-10-03T18:11:23.031Z,100.00
2018-10-03T18:12:46.252Z,100.00
2018-10-03T18:14:13.528Z,100.00
2018-10-03T18:15:44.759Z,100.00
2018-10-03T18:17:11.983Z,100.00
2018-10-03T18:18:39.055Z,100.00
2018-10-03T18:20:02.311Z,100.00
2018-10-03T18:21:29.230Z,100.00
2018-10-03T18:23:00.071Z,100.00
2018-10-03T18:24:23.147Z,100.00
2018-10-03T18:25:54.482Z,100.00
2018-10-03T18:27:21.840Z,100.00
2018-10-03T18:28:44.764Z,100.00
2018-10-03T18:30:12.001Z,100.00
2018-10-03T18:31:39.267Z,100.00
2018-10-03T18:33:10.499Z,100.00
2018-10-03T18:34:33.640Z,100.00
2018-10-03T18:36:04.566Z,100.00
2018-10-03T18:37:27.836Z,100.00
2018-10-03T18:38:59.338Z,100.00
2018-10-03T18:40:22.684Z,100.00
2018-10-03T18:41:53.953Z,100.00
2018-10-03T18:43:21.322Z,100.00
2018-10-03T18:44:44.390Z,100.00
2018-10-03T18:46:15.323Z,100.00
2018-10-03T18:47:42.297Z,100.00
2018-10-03T18:49:09.516Z,100.00
2018-10-03T18:50:32.723Z,100.00
2018-10-03T18:52:04.198Z,100.00
2018-10-03T18:53:31.473Z,100.00
2018-10-03T18:54:54.874Z,100.00
2018-10-03T18:56:26.375Z,100.00
2018-10-03T18:57:53.734Z,100.00
2018-10-03T18:59:21.080Z,100.00
2018-10-03T19:00:48.031Z,100.00
2018-10-03T19:02:10.849Z,100.00
2018-10-03T19:03:41.845Z,100.00
2018-10-03T19:05:09.103Z,100.00
2018-10-03T19:06:32.458Z,100.00
2018-10-03T19:08:03.623Z,100.00
2018-10-03T19:09:31.114Z,100.00
2018-10-03T19:10:54.493Z,100.00
2018-10-03T19:12:25.959Z,100.00
2018-10-03T19:13:53.010Z,100.00
2018-10-03T19:15:20.365Z,100.00
2018-10-03T19:16:43.825Z,100.00
2018-10-03T19:18:15.081Z,100.00
2018-10-03T19:19:38.345Z,100.00
2018-10-03T19:21:09.642Z,100.00
2018-10-03T19:22:32.973Z,100.00
2018-10-03T19:24:04.377Z,100.00
2018-10-03T19:25:27.765Z,100.00
2018-10-03T19:26:58.685Z,100.00
2018-10-03T19:28:25.966Z,100.00
2018-10-03T19:29:49.299Z,100.00
2018-10-03T19:31:16.555Z,100.00
2018-10-03T19:32:43.796Z,100.00
2018-10-03T19:34:14.921Z,100.00
2018-10-03T19:35:41.825Z,100.00
2018-10-03T19:37:04.916Z,100.00
2018-10-03T19:38:35.946Z,100.00
2018-10-03T19:40:03.204Z,100.00
2018-10-03T19:41:26.621Z,100.00
2018-10-03T19:42:57.760Z,100.00
2018-10-03T19:44:25.080Z,100.00
2018-10-03T19:45:48.591Z,100.00
2018-10-03T19:47:19.719Z,100.00
2018-10-03T19:48:42.947Z,100.00
2018-10-03T19:50:14.240Z,100.00
2018-10-03T19:51:41.356Z,100.00
2018-10-03T19:53:08.580Z,100.00
2018-10-03T19:54:35.999Z,100.00
2018-10-03T19:55:59.216Z,100.00
2018-10-03T19:57:30.084Z,100.00
2018-10-03T19:58:57.472Z,100.00
2018-10-03T20:00:20.808Z,100.00
2018-10-03T20:01:52.055Z,100.00
2018-10-03T20:03:15.489Z,100.00
2018-10-03T20:04:42.717Z,100.00
2018-10-03T20:06:09.754Z,100.00
2018-10-03T20:07:36.985Z,100.00
2018-10-03T20:09:08.357Z,100.00
2018-10-03T20:10:31.522Z,100.00
2018-10-03T20:11:58.996Z,100.00
2018-10-03T20:13:25.756Z,100.00
2018-10-03T20:14:57.135Z,100.00
2018-10-03T20:16:24.105Z,100.00
2018-10-03T20:17:51.460Z,100.00
2018-10-03T20:19:14.715Z,100.00
2018-10-03T20:20:41.958Z,100.00
2018-10-03T20:22:13.132Z,100.00
2018-10-03T20:23:40.349Z,100.00
2018-10-03T20:25:07.752Z,100.00
2018-10-03T20:26:31.081Z,100.00
2018-10-03T20:28:02.424Z,100.00
2018-10-03T20:29:25.876Z,100.00
2018-10-03T20:30:57.059Z,100.00
2018-10-03T20:32:19.853Z,100.00
2018-10-03T20:33:47.035Z,100.00
2018-10-03T20:35:18.128Z,100.00
2018-10-03T20:36:45.221Z,100.00
2018-10-03T20:38:12.460Z,100.00
2018-10-03T20:39:39.483Z,100.00
2018-10-03T20:41:06.459Z,100.00
2018-10-03T20:42:29.421Z,100.00
2018-10-03T20:44:00.762Z,100.00
2018-10-03T20:45:27.511Z,100.00
2018-10-03T20:46:54.617Z,100.00
2018-10-03T20:48:18.019Z,100.00
2018-10-03T20:49:49.239Z,100.00
2018-10-03T20:51:16.450Z,100.00
2018-10-03T20:52:43.771Z,100.00
2018-10-03T20:54:06.975Z,100.00
2018-10-03T20:55:34.262Z,100.00
2018-10-03T20:57:01.051Z,100.00
2018-10-03T20:58:28.470Z,100.00
2018-10-03T20:59:55.921Z,100.00
2018-10-03T21:01:23.069Z,100.00
2018-10-03T21:02:54.333Z,100.00
2018-10-03T21:04:17.811Z,100.00
2018-10-03T21:05:45.085Z,100.00
2018-10-03T21:07:16.184Z,100.00
2018-10-03T21:08:43.000Z,100.00
2018-10-03T21:10:09.998Z,100.00
2018-10-03T21:11:33.248Z,100.00
2018-10-03T21:13:00.612Z,100.00
2018-10-03T21:14:31.737Z,100.00
2018-10-03T21:15:54.675Z,100.00
2018-10-03T21:17:26.005Z,100.00
2018-10-03T21:18:49.223Z,100.00
2018-10-03T21:20:20.144Z,100.00
2018-10-03T21:21:43.410Z,100.00
2018-10-03T21:23:10.788Z,100.00
2018-10-03T21:24:41.897Z,100.00
2018-10-03T21:26:09.241Z,100.00
2018-10-03T21:27:32.467Z,100.00
2018-10-03T21:28:59.828Z,100.00
2018-10-03T21:30:27.106Z,100.00
2018-10-03T21:31:54.499Z,100.00
2018-10-03T21:33:21.568Z,100.00
2018-10-03T21:34:48.765Z,100.00
2018-10-03T21:36:19.638Z,100.00
2018-10-03T21:37:43.073Z,100.00
2018-10-03T21:39:14.233Z,100.00
2018-10-03T21:40:37.405Z,100.00
2018-10-03T21:42:04.124Z,100.00
2018-10-03T21:43:31.527Z,100.00
2018-10-03T21:45:02.865Z,100.00
2018-10-03T21:46:26.309Z,100.00
2018-10-03T21:47:53.384Z,100.00
2018-10-03T21:49:24.542Z,100.00
2018-10-03T21:50:51.775Z,100.00
2018-10-03T21:52:18.722Z,100.00
2018-10-03T21:53:41.684Z,100.00
2018-10-03T21:55:08.784Z,100.00
2018-10-03T21:56:39.672Z,100.00
2018-10-03T21:58:02.971Z,100.00
2018-10-03T21:59:34.469Z,100.00
2018-10-03T22:01:01.482Z,100.00
2018-10-03T22:02:28.278Z,100.00
2018-10-03T22:03:51.604Z,100.00
2018-10-03T22:05:18.952Z,100.00
2018-10-03T22:06:50.060Z,100.00
2018-10-03T22:08:13.163Z,100.00
2018-10-03T22:09:44.442Z,100.00
2018-10-03T22:11:07.772Z,100.00
2018-10-03T22:12:39.236Z,100.00
2018-10-03T22:14:06.494Z,100.00
2018-10-03T22:15:29.844Z,100.00
2018-10-03T22:17:01.253Z,100.00
2018-10-03T22:18:24.251Z,100.00
2018-10-03T22:19:51.405Z,100.00
2018-10-03T22:21:22.712Z,100.00
2018-10-03T22:22:50.108Z,100.00
2018-10-03T22:24:17.447Z,100.00
2018-10-03T22:25:40.718Z,100.00
2018-10-03T22:27:11.829Z,100.00
2018-10-03T22:28:35.179Z,100.00
2018-10-03T22:30:06.097Z,100.00
2018-10-03T22:31:29.086Z,100.00
2018-10-03T22:32:55.801Z,100.00
2018-10-03T22:34:23.292Z,100.00
2018-10-03T22:35:54.428Z,100.00
2018-10-03T22:37:21.797Z,100.00
2018-10-03T22:38:49.148Z,100.00
2018-10-03T22:40:16.415Z,100.00
2018-10-03T22:41:39.624Z,100.00
2018-10-03T22:43:06.507Z,100.00
2018-10-03T22:44:33.848Z,100.00
2018-10-03T22:46:01.065Z,100.00
2018-10-03T22:47:27.938Z,100.00
2018-10-03T22:48:55.253Z,100.00
2018-10-03T22:50:26.610Z,100.00
2018-10-03T22:51:53.880Z,100.00
2018-10-03T22:53:21.294Z,100.00
2018-10-03T22:54:48.392Z,100.00
2018-10-03T22:56:15.633Z,100.00
2018-10-03T22:57:38.977Z,100.00
2018-10-03T22:59:10.252Z,100.00
2018-10-03T23:00:33.220Z,100.00
2018-10-03T23:02:04.703Z,100.00
2018-10-03T23:03:28.035Z,100.00
2018-10-03T23:04:55.348Z,100.00
2018-10-03T23:06:26.579Z,100.00
2018-10-03T23:07:49.734Z,100.00
2018-10-03T23:09:20.863Z,100.00
2018-10-03T23:10:48.110Z,100.00
2018-10-03T23:12:11.276Z,100.00
2018-10-03T23:13:38.405Z,100.00
2018-10-03T23:15:05.767Z,100.00
2018-10-03T23:16:37.052Z,100.00
2018-10-03T23:18:04.245Z,100.00
2018-10-03T23:19:27.556Z,100.00
2018-10-03T23:20:58.886Z,100.00
2018-10-03T23:22:22.226Z,100.00
2018-10-03T23:23:49.496Z,100.00
2018-10-03T23:25:20.872Z,100.00
2018-10-03T23:26:48.205Z,100.00
2018-10-03T23:28:11.574Z,100.00
2018-10-03T23:29:38.524Z,100.00
2018-10-03T23:31:09.258Z,100.00
2018-10-03T23:32:32.476Z,100.00
2018-10-03T23:34:03.792Z,100.00
2018-10-03T23:35:31.060Z,100.00
2018-10-03T23:36:54.205Z,100.00
2018-10-03T23:38:25.593Z,100.00
2018-10-03T23:39:48.422Z,100.00
2018-10-03T23:41:15.574Z,100.00
2018-10-03T23:42:46.801Z,100.00
2018-10-03T23:44:14.141Z,100.00
